createdAt,value
2022-10-23T00:01:42.567Z,100588.09
2022-10-23T00:04:13.651Z,100591.78
2022-10-23T00:06:43.190Z,100599.34
2022-10-23T00:09:14.215Z,100593.06
2022-10-23T00:11:44.811Z,100573.50
2022-10-23T00:14:13.109Z,100571.25
2022-10-23T00:16:41.190Z,100569.78
2022-10-23T00:19:09.368Z,100584.19
2022-10-23T00:21:38.764Z,100569.97
2022-10-23T00:26:40.693Z,100573.66
2022-10-23T00:29:10.594Z,100566.41
2022-10-23T00:31:39.352Z,100567.19
2022-10-23T00:34:09.212Z,100552.56
2022-10-23T00:36:38.907Z,100558.31
2022-10-23T00:39:07.572Z,100552.94
2022-10-23T00:41:35.885Z,100552.03
2022-10-23T00:44:12.434Z,100548.53
2022-10-23T00:46:41.297Z,100551.47
2022-10-23T00:51:41.804Z,100543.19
2022-10-23T00:54:23.322Z,100544.13
2022-10-23T00:56:53.642Z,100542.63
2022-10-23T00:59:23.750Z,100540.03
2022-10-23T01:01:52.420Z,100537.06
2022-10-23T01:04:21.333Z,100538.38
2022-10-23T01:06:59.504Z,100524.72
2022-10-23T01:09:33.121Z,100514.56
2022-10-23T01:12:16.290Z,100517.34
2022-10-23T01:14:58.376Z,100513.84
2022-10-23T01:17:39.636Z,100521.03
2022-10-23T01:20:42.324Z,100513.25
2022-10-23T01:23:43.469Z,100511.06
2022-10-23T01:26:45.798Z,100518.28
2022-10-23T01:29:23.084Z,100506.44
2022-10-23T01:31:57.738Z,100516.59
2022-10-23T01:34:32.814Z,100519.00
2022-10-23T01:37:05.160Z,100518.06
2022-10-23T01:39:39.065Z,100505.50
2022-10-23T01:42:12.518Z,100508.81
2022-10-23T01:44:45.819Z,100511.41
2022-10-23T01:47:17.796Z,100511.41
2022-10-23T01:49:57.807Z,100516.72
2022-10-23T01:52:26.477Z,100515.41
2022-10-23T01:55:00.347Z,100520.59
2022-10-23T01:57:33.959Z,100518.56
2022-10-23T02:00:09.006Z,100511.88
2022-10-23T02:02:55.228Z,100507.84
2022-10-23T02:05:31.484Z,100492.69
2022-10-23T02:08:01.872Z,100482.16
2022-10-23T02:10:33.298Z,100476.28
2022-10-23T02:13:07.336Z,100480.16
2022-10-23T02:15:40.664Z,100470.34
2022-10-23T02:18:17.798Z,100469.03
2022-10-23T02:20:54.210Z,100468.09
2022-10-23T02:23:26.838Z,100469.41
2022-10-23T02:26:00.403Z,100472.19
2022-10-23T02:28:39.606Z,100471.63
2022-10-23T02:31:15.249Z,100474.91
2022-10-23T02:33:45.830Z,100478.63
2022-10-23T02:36:14.778Z,100476.97
2022-10-23T02:38:44.508Z,100480.25
2022-10-23T02:41:22.681Z,100475.44
2022-10-23T02:44:00.698Z,100473.56
2022-10-23T02:46:41.597Z,100468.41
2022-10-23T02:49:14.827Z,100459.16
2022-10-23T02:51:53.269Z,100468.56
2022-10-23T02:54:41.959Z,100457.13
2022-10-23T02:57:17.500Z,100458.97
2022-10-23T03:00:01.588Z,100461.94
2022-10-23T03:02:37.063Z,100470.41
2022-10-23T03:05:11.287Z,100459.50
2022-10-23T03:07:42.185Z,100455.81
2022-10-23T03:10:13.162Z,100458.75
2022-10-23T03:12:42.225Z,100462.41
2022-10-23T03:15:14.374Z,100458.72
2022-10-23T03:17:45.416Z,100450.75
2022-10-23T03:20:17.078Z,100456.28
2022-10-23T03:22:46.345Z,100448.00
2022-10-23T03:25:17.051Z,100439.88
2022-10-23T03:27:47.002Z,100442.13
2022-10-23T03:30:18.505Z,100421.09
2022-10-23T03:32:52.383Z,100439.31
2022-10-23T03:35:22.148Z,100428.81
2022-10-23T03:37:50.674Z,100434.56
2022-10-23T03:40:19.129Z,100446.53
2022-10-23T03:42:47.410Z,100442.09
2022-10-23T03:45:20.111Z,100430.63
2022-10-23T03:47:51.938Z,100435.44
2022-10-23T03:50:23.614Z,100438.72
2022-10-23T03:52:51.990Z,100421.75
2022-10-23T03:55:20.619Z,100428.16
2022-10-23T03:57:48.913Z,100439.06
2022-10-23T04:00:20.679Z,100450.66
2022-10-23T04:02:49.423Z,100440.13
2022-10-23T04:05:17.974Z,100435.72
2022-10-23T04:07:56.561Z,100434.88
2022-10-23T04:10:25.070Z,100439.84
2022-10-23T04:12:53.428Z,100442.44
2022-10-23T04:15:22.325Z,100450.94
2022-10-23T04:17:51.299Z,100453.28
2022-10-23T04:20:21.977Z,100468.63
2022-10-23T04:22:50.512Z,100462.69
2022-10-23T04:25:20.414Z,100451.78
2022-10-23T04:27:49.435Z,100447.88
2022-10-23T04:30:18.895Z,100451.00
2022-10-23T04:32:51.727Z,100445.47
2022-10-23T04:35:21.768Z,100442.53
2022-10-23T04:37:50.498Z,100448.25
2022-10-23T04:40:23.940Z,100454.34
2022-10-23T04:42:55.321Z,100457.31
2022-10-23T04:45:24.303Z,100455.25
2022-10-23T04:47:53.800Z,100455.94
2022-10-23T04:50:22.530Z,100452.00
2022-10-23T04:53:18.268Z,100449.59
2022-10-23T04:56:07.609Z,100438.88
2022-10-23T04:58:50.672Z,100435.91
2022-10-23T05:01:20.095Z,100438.16
2022-10-23T05:03:50.130Z,100437.06
2022-10-23T05:06:19.260Z,100426.34
2022-10-23T05:09:11.090Z,100431.53
2022-10-23T05:12:00.885Z,100436.38
2022-10-23T05:14:29.489Z,100436.06
2022-10-23T05:17:02.310Z,100429.03
2022-10-23T05:19:36.857Z,100427.00
2022-10-23T05:22:06.481Z,100425.56
2022-10-23T05:24:50.745Z,100428.72
2022-10-23T05:27:25.489Z,100428.75
2022-10-23T05:29:58.891Z,100422.13
2022-10-23T05:32:33.802Z,100409.59
2022-10-23T05:35:07.977Z,100413.47
2022-10-23T05:37:38.850Z,100413.25
2022-10-23T05:40:12.938Z,100402.00
2022-10-23T05:42:46.539Z,100410.50
2022-10-23T05:45:18.692Z,100414.00
2022-10-23T05:48:11.398Z,100411.56
2022-10-23T05:51:22.437Z,100399.53
2022-10-23T05:54:04.379Z,100392.16
2022-10-23T05:56:42.067Z,100395.03
2022-10-23T05:59:23.125Z,100388.78
2022-10-23T06:02:24.427Z,100381.03
2022-10-23T06:05:02.853Z,100376.63
2022-10-23T06:07:38.181Z,100376.63
2022-10-23T06:10:09.899Z,100375.75
2022-10-23T06:12:44.503Z,100377.41
2022-10-23T06:15:19.471Z,100386.66
2022-10-23T06:18:14.364Z,100395.75
2022-10-23T06:20:55.302Z,100392.41
2022-10-23T06:23:28.898Z,100389.66
2022-10-23T06:26:21.294Z,100381.34
2022-10-23T06:28:58.606Z,100370.47
2022-10-23T06:31:29.779Z,100370.88
2022-10-23T06:34:00.650Z,100375.72
2022-10-23T06:36:32.314Z,100367.75
2022-10-23T06:39:10.229Z,100359.84
2022-10-23T06:42:04.981Z,100358.19
2022-10-23T06:44:53.766Z,100363.00
2022-10-23T06:47:51.015Z,100363.56
2022-10-23T06:50:38.741Z,100373.53
2022-10-23T06:53:13.916Z,100381.13
2022-10-23T06:55:52.940Z,100383.16
2022-10-23T06:58:25.868Z,100384.47
2022-10-23T07:01:07.604Z,100391.69
2022-10-23T07:03:38.932Z,100385.03
2022-10-23T07:06:12.282Z,100388.00
2022-10-23T07:08:42.110Z,100394.31
2022-10-23T07:11:40.236Z,100401.50
2022-10-23T07:14:09.979Z,100408.34
2022-10-23T07:16:40.351Z,100398.53
2022-10-23T07:19:13.643Z,100396.72
2022-10-23T07:22:10.828Z,100404.25
2022-10-23T07:24:46.517Z,100391.69
2022-10-23T07:27:29.101Z,100393.00
2022-10-23T07:30:01.371Z,100385.03
2022-10-23T07:32:35.159Z,100375.78
2022-10-23T07:35:25.539Z,100384.44
2022-10-23T07:38:00.573Z,100388.13
2022-10-23T07:40:33.045Z,100393.09
2022-10-23T07:43:02.464Z,100389.03
2022-10-23T07:45:32.031Z,100381.13
2022-10-23T07:48:08.857Z,100380.28
2022-10-23T07:51:02.082Z,100380.50
2022-10-23T07:53:33.939Z,100373.25
2022-10-23T07:56:16.001Z,100379.91
2022-10-23T07:59:03.680Z,100379.41
2022-10-23T08:01:42.583Z,100370.88
2022-10-23T08:04:13.842Z,100371.81
2022-10-23T08:07:02.234Z,100373.78
2022-10-23T08:09:43.156Z,100371.34
2022-10-23T08:12:23.031Z,100370.84
2022-10-23T08:14:53.642Z,100361.38
2022-10-23T08:17:47.059Z,100366.16
2022-10-23T08:20:24.216Z,100354.84
2022-10-23T08:22:55.680Z,100352.84
2022-10-23T08:25:28.551Z,100345.44
2022-10-23T08:27:58.044Z,100333.44
2022-10-23T08:30:27.042Z,100326.63
2022-10-23T08:32:57.131Z,100320.81
2022-10-23T08:35:26.124Z,100321.00
2022-10-23T08:37:56.151Z,100333.91
2022-10-23T08:40:27.521Z,100334.50
2022-10-23T08:43:28.259Z,100330.66
2022-10-23T08:46:15.382Z,100329.63
2022-10-23T08:49:22.283Z,100328.34
2022-10-23T08:52:14.738Z,100324.06
2022-10-23T08:55:01.470Z,100333.19
2022-10-23T08:57:38.679Z,100334.34
2022-10-23T09:00:17.743Z,100338.00
2022-10-23T09:02:48.681Z,100340.25
2022-10-23T09:05:21.201Z,100338.03
2022-10-23T09:08:09.703Z,100341.78
2022-10-23T09:10:53.771Z,100338.69
2022-10-23T09:13:36.019Z,100337.03
2022-10-23T09:16:15.952Z,100328.41
2022-10-23T09:18:44.818Z,100337.06
2022-10-23T09:21:13.751Z,100333.63
2022-10-23T09:23:42.292Z,100333.34
2022-10-23T09:26:16.719Z,100329.19
2022-10-23T09:28:49.168Z,100326.53
2022-10-23T09:31:19.216Z,100318.91
2022-10-23T09:33:58.421Z,100317.84
2022-10-23T09:36:29.288Z,100311.09
2022-10-23T09:39:00.049Z,100294.38
2022-10-23T09:41:35.151Z,100306.78
2022-10-23T09:44:20.223Z,100299.84
2022-10-23T09:46:53.527Z,100313.25
2022-10-23T09:49:24.903Z,100337.09
2022-10-23T09:52:00.831Z,100334.44
2022-10-23T09:54:32.087Z,100333.84
2022-10-23T09:57:07.357Z,100335.91
2022-10-23T09:59:36.014Z,100341.22
2022-10-23T10:02:21.675Z,100337.78
2022-10-23T10:05:22.613Z,100331.81
2022-10-23T10:07:57.855Z,100319.50
2022-10-23T10:10:30.284Z,100311.63
2022-10-23T10:13:05.400Z,100304.38
2022-10-23T10:15:41.023Z,100296.50
2022-10-23T10:18:19.420Z,100292.97
2022-10-23T10:20:58.962Z,100292.66
2022-10-23T10:23:30.966Z,100288.34
2022-10-23T10:26:08.321Z,100289.94
2022-10-23T10:29:11.770Z,100286.78
2022-10-23T10:31:57.601Z,100275.69
2022-10-23T10:34:31.311Z,100279.94
2022-10-23T10:37:07.354Z,100284.66
2022-10-23T10:39:43.914Z,100280.97
2022-10-23T10:42:25.607Z,100279.31
2022-10-23T10:45:09.969Z,100275.22
2022-10-23T10:47:50.509Z,100265.66
2022-10-23T10:50:31.020Z,100268.81
2022-10-23T10:53:21.961Z,100260.81
2022-10-23T10:55:53.494Z,100249.91
2022-10-23T10:58:29.139Z,100253.34
2022-10-23T11:01:02.621Z,100239.22
2022-10-23T11:03:40.273Z,100248.22
2022-10-23T11:06:16.236Z,100253.59
2022-10-23T11:08:57.397Z,100250.78
2022-10-23T11:11:34.076Z,100238.53
2022-10-23T11:14:03.665Z,100242.72
2022-10-23T11:16:38.625Z,100249.88
2022-10-23T11:19:14.439Z,100257.03
2022-10-23T11:21:46.959Z,100250.81
2022-10-23T11:24:50.781Z,100239.53
2022-10-23T11:27:36.241Z,100231.94
2022-10-23T11:30:26.355Z,100230.00
2022-10-23T11:33:29.643Z,100221.28
2022-10-23T11:36:14.022Z,100209.91
2022-10-23T11:38:44.114Z,100209.66
2022-10-23T11:41:25.360Z,100194.03
2022-10-23T11:43:58.253Z,100183.03
2022-10-23T11:46:35.299Z,100184.28
2022-10-23T11:49:20.104Z,100180.63
2022-10-23T11:51:48.442Z,100185.00
2022-10-23T11:54:27.189Z,100192.22
2022-10-23T11:57:10.080Z,100181.97
2022-10-23T11:59:53.897Z,100199.25
2022-10-23T12:02:32.663Z,100192.38
2022-10-23T12:05:07.468Z,100195.28
2022-10-23T12:07:38.594Z,100194.16
2022-10-23T12:10:18.639Z,100174.03
2022-10-23T12:12:56.422Z,100170.59
2022-10-23T12:15:26.605Z,100150.72
2022-10-23T12:17:58.558Z,100135.03
2022-10-23T12:20:41.751Z,100130.75
2022-10-23T12:23:43.173Z,100116.81
2022-10-23T12:26:27.573Z,100127.63
2022-10-23T12:29:03.096Z,100133.38
2022-10-23T12:31:48.056Z,100136.41
2022-10-23T12:34:31.495Z,100137.22
2022-10-23T12:37:27.631Z,100119.63
2022-10-23T12:39:57.098Z,100116.00
2022-10-23T12:42:26.636Z,100101.84
2022-10-23T12:45:03.266Z,100101.84
2022-10-23T12:47:33.026Z,100102.19
2022-10-23T12:50:02.204Z,100090.00
2022-10-23T12:52:35.958Z,100074.66
2022-10-23T12:55:14.030Z,100065.44
2022-10-23T12:57:43.245Z,100065.94
2022-10-23T13:00:17.248Z,100070.38
2022-10-23T13:02:46.030Z,100077.03
2022-10-23T13:05:19.376Z,100077.19
2022-10-23T13:07:50.310Z,100081.47
2022-10-23T13:10:26.011Z,100073.75
2022-10-23T13:13:06.144Z,100067.41
2022-10-23T13:15:40.412Z,100063.28
2022-10-23T13:18:14.063Z,100071.63
2022-10-23T13:20:44.320Z,100056.13
2022-10-23T13:23:20.242Z,100062.00
2022-10-23T13:25:55.866Z,100049.69
2022-10-23T13:28:26.565Z,100044.50
2022-10-23T13:31:01.740Z,100043.97
2022-10-23T13:33:35.523Z,100039.44
2022-10-23T13:36:07.161Z,100042.69
2022-10-23T13:38:39.524Z,100033.25
2022-10-23T13:41:14.931Z,100020.75
2022-10-23T13:43:44.144Z,100017.38
2022-10-23T13:46:19.723Z,100011.09
2022-10-23T13:48:48.802Z,100023.38
2022-10-23T13:51:21.002Z,100015.63
2022-10-23T13:53:50.981Z,100004.16
2022-10-23T13:56:21.901Z,100000.25
2022-10-23T13:58:51.239Z,99995.00
2022-10-23T14:01:24.351Z,100000.38
2022-10-23T14:03:53.794Z,99995.16
2022-10-23T14:06:22.122Z,99991.16
2022-10-23T14:08:52.584Z,99990.00
2022-10-23T14:11:21.505Z,99986.09
2022-10-23T14:13:50.903Z,99981.38
2022-10-23T14:16:21.238Z,99974.41
2022-10-23T14:18:50.014Z,99976.13
2022-10-23T14:21:22.715Z,99968.50
2022-10-23T14:23:53.836Z,99972.50
2022-10-23T14:26:24.802Z,99948.97
2022-10-23T14:28:54.552Z,99952.72
2022-10-23T14:31:23.162Z,99941.91
2022-10-23T14:33:54.328Z,99948.88
2022-10-23T14:36:23.813Z,99946.69
2022-10-23T14:38:59.583Z,99951.59
2022-10-23T14:41:28.318Z,99947.16
2022-10-23T14:43:56.670Z,99944.16
2022-10-23T14:46:25.950Z,99939.63
2022-10-23T14:48:56.521Z,99945.59
2022-10-23T14:51:27.709Z,99940.66
2022-10-23T14:53:59.650Z,99943.94
2022-10-23T14:56:28.211Z,99945.09
2022-10-23T14:59:02.866Z,99936.97
2022-10-23T15:01:31.865Z,99933.66
2022-10-23T15:04:00.414Z,99929.66
2022-10-23T15:06:29.222Z,99927.88
2022-10-23T15:08:58.847Z,99934.69
2022-10-23T15:11:27.505Z,99921.44
2022-10-23T15:13:57.065Z,99908.31
2022-10-23T15:16:25.612Z,99923.63
2022-10-23T15:18:55.415Z,99917.66
2022-10-23T15:21:23.943Z,99916.53
2022-10-23T15:23:52.957Z,99916.47
2022-10-23T15:26:23.769Z,99922.78
2022-10-23T15:28:55.353Z,99909.22
2022-10-23T15:31:48.179Z,99914.75
2022-10-23T15:34:18.713Z,99909.34
2022-10-23T15:36:48.068Z,99903.34
2022-10-23T15:39:18.712Z,99902.84
2022-10-23T15:41:55.983Z,99896.72
2022-10-23T15:44:26.693Z,99892.72
2022-10-23T15:46:57.049Z,99884.53
2022-10-23T15:49:26.237Z,99883.50
2022-10-23T15:51:54.692Z,99885.25
2022-10-23T15:54:26.039Z,99879.25
2022-10-23T15:57:02.553Z,99890.75
2022-10-23T15:59:32.730Z,99879.09
2022-10-23T16:02:01.024Z,99858.97
2022-10-23T16:04:29.807Z,99860.38
2022-10-23T16:06:58.044Z,99870.34
2022-10-23T16:09:26.546Z,99866.13
2022-10-23T16:11:55.010Z,99861.91
2022-10-23T16:14:24.913Z,99861.97
2022-10-23T16:16:54.072Z,99852.16
2022-10-23T16:19:22.313Z,99844.56
2022-10-23T16:21:50.459Z,99844.84
2022-10-23T16:24:18.607Z,99845.09
2022-10-23T16:26:51.770Z,99846.84
2022-10-23T16:29:21.270Z,99840.28
2022-10-23T16:31:50.966Z,99836.41
2022-10-23T16:34:20.058Z,99837.50
2022-10-23T16:36:48.867Z,99831.56
2022-10-23T16:39:36.145Z,99820.16
2022-10-23T16:42:23.581Z,99817.94
2022-10-23T16:45:06.090Z,99818.06
2022-10-23T16:47:36.106Z,99814.53
2022-10-23T16:50:05.321Z,99805.31
2022-10-23T16:52:34.697Z,99808.00
2022-10-23T16:55:02.981Z,99803.63
2022-10-23T16:57:31.105Z,99788.91
2022-10-23T16:59:59.700Z,99788.91
2022-10-23T17:02:28.398Z,99786.25
2022-10-23T17:04:58.273Z,99800.31
2022-10-23T17:07:26.904Z,99787.56
2022-10-23T17:09:55.756Z,99790.38
2022-10-23T17:12:23.854Z,99783.44
2022-10-23T17:14:52.512Z,99790.72
2022-10-23T17:17:20.940Z,99794.09
2022-10-23T17:19:49.646Z,99786.75
2022-10-23T17:22:19.556Z,99803.28
2022-10-23T17:24:51.500Z,99812.69
2022-10-23T17:27:22.624Z,99835.00
2022-10-23T17:29:50.784Z,99840.53
2022-10-23T17:32:19.102Z,99841.59
2022-10-23T17:34:47.973Z,99856.53
2022-10-23T17:37:17.490Z,99882.88
2022-10-23T17:39:47.098Z,99904.41
2022-10-23T17:42:16.033Z,99931.47
2022-10-23T17:44:44.454Z,99982.88
2022-10-23T17:47:13.688Z,99986.28
2022-10-23T17:49:45.414Z,100025.00
2022-10-23T17:52:16.565Z,100042.09
2022-10-23T17:54:45.698Z,100060.28
2022-10-23T17:57:15.324Z,100081.09
2022-10-23T17:59:44.438Z,100107.44
2022-10-23T18:02:14.238Z,100104.50
2022-10-23T18:04:42.710Z,100100.75
2022-10-23T18:07:11.096Z,100098.22
2022-10-23T18:09:39.393Z,100098.94
2022-10-23T18:12:08.009Z,100084.19
2022-10-23T18:14:38.459Z,100078.72
2022-10-23T18:17:06.806Z,100081.03
2022-10-23T18:19:36.499Z,100070.06
2022-10-23T18:22:05.233Z,100061.19
2022-10-23T18:24:36.329Z,100050.34
2022-10-23T18:27:07.063Z,100015.78
2022-10-23T18:29:39.490Z,99976.03
2022-10-23T18:32:08.408Z,99969.09
2022-10-23T18:34:36.780Z,99985.03
2022-10-23T18:37:05.081Z,99984.06
2022-10-23T18:39:35.360Z,99955.13
2022-10-23T18:42:03.948Z,99967.50
2022-10-23T18:44:32.631Z,99981.25
2022-10-23T18:47:02.502Z,99985.38
2022-10-23T18:49:31.381Z,99990.84
2022-10-23T18:52:01.792Z,100020.16
2022-10-23T18:54:30.161Z,100018.56
2022-10-23T18:56:58.580Z,100019.75
2022-10-23T18:59:26.925Z,100019.75
2022-10-23T19:01:55.358Z,100010.53
2022-10-23T19:04:25.840Z,100014.66
2022-10-23T19:06:55.477Z,100017.31
2022-10-23T19:09:23.484Z,100018.31
2022-10-23T19:11:52.722Z,100015.50
2022-10-23T19:14:21.845Z,100008.56
2022-10-23T19:17:01.534Z,100005.69
2022-10-23T19:19:32.620Z,99999.34
2022-10-23T19:22:03.363Z,99991.44
2022-10-23T19:24:36.687Z,99980.72
2022-10-23T19:27:05.691Z,99978.69
2022-10-23T19:29:34.912Z,99975.25
2022-10-23T19:32:03.315Z,99966.22
2022-10-23T19:34:32.918Z,99980.56
2022-10-23T19:37:01.109Z,99983.25
2022-10-23T19:39:32.543Z,99971.63
2022-10-23T19:42:01.439Z,99984.16
2022-10-23T19:44:30.312Z,99980.97
2022-10-23T19:46:58.990Z,99980.63
2022-10-23T19:49:27.318Z,99982.22
2022-10-23T19:51:57.890Z,99987.19
2022-10-23T19:54:26.373Z,99982.13
2022-10-23T19:56:56.193Z,99990.63
2022-10-23T19:59:25.074Z,99996.97
2022-10-23T20:01:53.585Z,99984.31
2022-10-23T20:04:21.931Z,99997.72
2022-10-23T20:06:55.326Z,100000.84
2022-10-23T20:09:27.347Z,100004.28
2022-10-23T20:11:56.778Z,100001.34
2022-10-23T20:14:25.247Z,100008.59
2022-10-23T20:16:56.076Z,100003.50
2022-10-23T20:19:27.508Z,99993.75
2022-10-23T20:21:55.986Z,99994.00
2022-10-23T20:24:24.490Z,100008.94
2022-10-23T20:26:56.279Z,100011.72
2022-10-23T20:29:25.787Z,100005.16
2022-10-23T20:31:54.249Z,100018.72
2022-10-23T20:34:23.227Z,100010.84
2022-10-23T20:36:53.299Z,100021.16
2022-10-23T20:39:26.580Z,100021.25
2022-10-23T20:41:57.002Z,100017.63
2022-10-23T20:44:26.571Z,100023.09
2022-10-23T20:46:56.187Z,100025.75
2022-10-23T20:49:25.343Z,100018.69
2022-10-23T20:51:55.764Z,100025.00
2022-10-23T20:54:24.863Z,100017.50
2022-10-23T20:56:53.721Z,100030.59
2022-10-23T20:59:23.719Z,100022.09
2022-10-23T21:01:55.350Z,100026.47
2022-10-23T21:04:27.704Z,100035.00
2022-10-23T21:07:10.395Z,100039.38
2022-10-23T21:09:40.574Z,100042.53
2022-10-23T21:12:10.468Z,100046.59
2022-10-23T21:14:40.084Z,100045.88
2022-10-23T21:17:11.018Z,100049.44
2022-10-23T21:19:40.498Z,100054.53
2022-10-23T21:22:11.633Z,100051.50
2022-10-23T21:24:40.362Z,100057.56
2022-10-23T21:27:09.444Z,100057.09
2022-10-23T21:29:37.834Z,100056.34
2022-10-23T21:32:07.572Z,100061.19
2022-10-23T21:34:36.290Z,100068.28
2022-10-23T21:37:13.067Z,100063.78
2022-10-23T21:39:42.638Z,100056.47
2022-10-23T21:42:12.677Z,100054.28
2022-10-23T21:44:41.796Z,100051.00
2022-10-23T21:47:11.474Z,100058.31
2022-10-23T21:49:39.468Z,100060.75
2022-10-23T21:52:08.248Z,100058.66
2022-10-23T21:54:36.826Z,100061.09
2022-10-23T21:57:05.482Z,100059.88
2022-10-23T21:59:36.106Z,100054.03
2022-10-23T22:02:05.594Z,100064.81
2022-10-23T22:04:36.558Z,100063.09
2022-10-23T22:07:05.635Z,100054.34
2022-10-23T22:09:35.617Z,100051.41
2022-10-23T22:12:04.062Z,100050.56
2022-10-23T22:14:33.123Z,100047.63
2022-10-23T22:17:01.836Z,100048.84
2022-10-23T22:19:31.220Z,100056.34
2022-10-23T22:22:00.823Z,100059.59
2022-10-23T22:24:29.005Z,100060.16
2022-10-23T22:26:57.783Z,100050.16
2022-10-23T22:29:29.280Z,100045.63
2022-10-23T22:31:58.393Z,100042.75
2022-10-23T22:37:21.442Z,100033.75
2022-10-23T22:39:53.762Z,100031.81
2022-10-23T22:42:22.195Z,100036.59
2022-10-23T22:44:50.242Z,100040.72
2022-10-23T22:47:19.733Z,100040.81
2022-10-23T22:49:47.883Z,100031.78
2022-10-23T22:52:16.384Z,100041.72
2022-10-23T22:54:45.853Z,100039.16
2022-10-23T22:57:14.078Z,100044.25
2022-10-23T22:59:43.111Z,100043.75
2022-10-23T23:02:11.408Z,100043.13
2022-10-23T23:04:39.985Z,100034.88
2022-10-23T23:07:09.069Z,100041.19
2022-10-23T23:09:39.879Z,100048.84
2022-10-23T23:12:11.013Z,100050.50
2022-10-23T23:14:40.154Z,100055.09
2022-10-23T23:17:09.908Z,100051.19
2022-10-23T23:19:38.400Z,100055.88
2022-10-23T23:22:06.865Z,100058.28
2022-10-23T23:24:35.396Z,100056.47
2022-10-23T23:27:07.733Z,100065.72
2022-10-23T23:29:37.232Z,100050.53
2022-10-23T23:32:06.405Z,100056.88
2022-10-23T23:34:34.660Z,100050.78
2022-10-23T23:37:03.501Z,100052.63
2022-10-23T23:39:31.677Z,100047.84
2022-10-23T23:41:59.817Z,100053.13
2022-10-23T23:44:28.299Z,100055.78
2022-10-23T23:46:57.955Z,100053.56
2022-10-23T23:49:26.123Z,100054.56
2022-10-23T23:51:56.266Z,100049.06
2022-10-23T23:54:24.368Z,100058.41
2022-10-23T23:56:52.944Z,100052.56
2022-10-23T23:59:21.694Z,100054.75
